createdAt,value
2019-03-28T00:01:05.235Z,8.20
2019-03-28T00:03:36.692Z,12.50
2019-03-28T00:06:07.513Z,15.90
2019-03-28T00:08:38.987Z,13.53
2019-03-28T00:11:10.127Z,8.77
2019-03-28T00:13:41.961Z,9.33
2019-03-28T00:16:14.069Z,13.80
2019-03-28T00:18:44.972Z,24.60
2019-03-28T00:21:16.183Z,8.47
2019-03-28T00:24:01.437Z,19.20
2019-03-28T00:26:32.381Z,5.23
2019-03-28T00:29:03.945Z,8.80
2019-03-28T00:31:35.521Z,12.43
2019-03-28T00:34:07.269Z,7.47
2019-03-28T00:36:39.026Z,11.60
2019-03-28T00:39:10.373Z,27.03
2019-03-28T00:41:41.933Z,11.37
2019-03-28T00:44:13.283Z,11.50
2019-03-28T00:46:44.643Z,17.33
2019-03-28T00:49:15.735Z,15.70
2019-03-28T00:51:47.753Z,13.13
2019-03-28T00:54:19.002Z,18.13
2019-03-28T00:56:49.844Z,11.17
2019-03-28T00:59:20.634Z,14.70
2019-03-28T01:01:52.342Z,15.03
2019-03-28T01:04:23.287Z,18.73
2019-03-28T01:06:54.843Z,9.67
2019-03-28T01:09:25.590Z,12.97
2019-03-28T01:11:56.726Z,7.23
2019-03-28T01:14:28.286Z,6.77
2019-03-28T01:16:59.228Z,12.50
2019-03-28T01:19:30.394Z,14.37
2019-03-28T01:22:01.731Z,16.13
2019-03-28T01:24:33.023Z,12.83
2019-03-28T01:27:05.342Z,9.23
2019-03-28T01:29:37.338Z,13.03
2019-03-28T01:32:08.779Z,19.90
2019-03-28T01:34:40.335Z,9.00
2019-03-28T01:37:11.690Z,18.43
2019-03-28T01:39:43.306Z,14.70
2019-03-28T01:42:15.214Z,12.30
2019-03-28T01:44:46.162Z,17.43
2019-03-28T01:47:18.071Z,14.67
2019-03-28T01:49:50.244Z,15.73
2019-03-28T01:52:21.986Z,7.60
2019-03-28T01:54:53.485Z,12.00
2019-03-28T01:57:24.960Z,13.23
2019-03-28T01:59:56.260Z,16.13
2019-03-28T02:02:27.880Z,18.90
2019-03-28T02:04:59.186Z,16.23
2019-03-28T02:07:29.457Z,21.93
2019-03-28T02:10:00.505Z,18.60
2019-03-28T02:12:31.858Z,15.60
2019-03-28T02:15:04.296Z,10.80
2019-03-28T02:17:37.263Z,10.73
2019-03-28T02:20:10.614Z,20.13
2019-03-28T02:22:42.158Z,15.20
2019-03-28T02:25:13.916Z,10.70
2019-03-28T02:27:45.498Z,10.23
2019-03-28T02:30:18.083Z,13.67
2019-03-28T02:32:49.232Z,27.73
2019-03-28T02:35:21.598Z,16.77
2019-03-28T02:37:52.704Z,11.73
2019-03-28T02:40:24.521Z,10.63
2019-03-28T02:42:56.212Z,12.47
2019-03-28T02:45:28.233Z,8.80
2019-03-28T02:48:01.645Z,9.13
2019-03-28T02:50:34.232Z,26.47
2019-03-28T02:53:05.784Z,10.70
2019-03-28T02:55:37.346Z,14.93
2019-03-28T02:58:09.113Z,11.63
2019-03-28T03:00:40.808Z,14.20
2019-03-28T03:03:12.149Z,12.13
2019-03-28T03:05:43.372Z,11.63
2019-03-28T03:08:15.316Z,18.10
2019-03-28T03:10:47.084Z,15.03
2019-03-28T03:13:19.695Z,14.70
2019-03-28T03:15:52.270Z,13.73
2019-03-28T03:18:24.229Z,14.40
2019-03-28T03:20:55.583Z,15.37
2019-03-28T03:23:26.484Z,14.67
2019-03-28T03:25:58.283Z,14.80
2019-03-28T03:28:28.962Z,13.33
2019-03-28T03:31:00.382Z,7.40
2019-03-28T03:33:31.820Z,17.20
2019-03-28T03:36:03.081Z,25.27
2019-03-28T03:38:34.376Z,16.37
2019-03-28T03:41:06.152Z,28.07
2019-03-28T03:43:37.758Z,12.40
2019-03-28T03:46:09.312Z,14.50
2019-03-28T03:48:40.471Z,11.00
2019-03-28T03:51:11.611Z,12.40
2019-03-28T03:53:43.164Z,14.03
2019-03-28T03:56:14.927Z,20.03
2019-03-28T03:58:45.965Z,13.20
2019-03-28T04:01:18.723Z,9.63
2019-03-28T04:03:50.833Z,11.20
2019-03-28T04:06:22.177Z,18.47
2019-03-28T04:08:53.835Z,18.30
2019-03-28T04:11:26.033Z,12.83
2019-03-28T04:13:57.875Z,21.33
2019-03-28T04:16:30.070Z,12.63
2019-03-28T04:19:02.024Z,12.43
2019-03-28T04:21:33.575Z,11.93
2019-03-28T04:24:04.859Z,14.70
2019-03-28T04:26:36.079Z,13.73
2019-03-28T04:29:07.424Z,16.07
2019-03-28T04:31:38.851Z,16.30
2019-03-28T04:34:10.038Z,14.10
2019-03-28T04:36:41.483Z,17.43
2019-03-28T04:39:12.835Z,13.27
2019-03-28T04:41:44.632Z,10.70
2019-03-28T04:44:16.361Z,12.07
2019-03-28T04:46:47.918Z,13.90
2019-03-28T04:49:19.074Z,21.17
2019-03-28T04:51:50.212Z,10.83
2019-03-28T04:54:21.574Z,15.13
2019-03-28T04:56:52.655Z,9.53
2019-03-28T04:59:23.871Z,11.17
2019-03-28T05:02:02.997Z,21.53
2019-03-28T05:04:28.190Z,8.57
2019-03-28T05:07:00.176Z,13.87
2019-03-28T05:09:31.702Z,15.10
2019-03-28T05:12:02.806Z,10.13
2019-03-28T05:14:33.928Z,13.30
2019-03-28T05:17:05.584Z,10.57
2019-03-28T05:19:36.766Z,10.90
2019-03-28T05:22:07.884Z,13.33
2019-03-28T05:24:39.040Z,12.87
2019-03-28T05:27:10.586Z,15.80
2019-03-28T05:29:42.070Z,15.03
2019-03-28T05:32:13.698Z,12.50
2019-03-28T05:34:44.230Z,18.50
2019-03-28T05:37:15.587Z,16.73
2019-03-28T05:39:46.818Z,15.90
2019-03-28T05:42:17.882Z,16.50
2019-03-28T05:44:49.178Z,11.03
2019-03-28T05:47:22.261Z,13.60
2019-03-28T05:49:53.782Z,11.93
2019-03-28T05:52:25.338Z,10.63
2019-03-28T05:54:56.894Z,39.67
2019-03-28T05:57:28.450Z,19.50
2019-03-28T05:59:59.326Z,14.60
2019-03-28T06:02:30.701Z,10.20
2019-03-28T06:05:02.101Z,10.33
2019-03-28T06:07:33.668Z,12.63
2019-03-28T06:10:05.362Z,16.33
2019-03-28T06:12:37.808Z,12.80
2019-03-28T06:15:10.177Z,11.23
2019-03-28T06:17:41.410Z,14.70
2019-03-28T06:20:14.111Z,21.37
2019-03-28T06:22:45.408Z,12.57
2019-03-28T06:25:17.214Z,29.33
2019-03-28T06:27:48.370Z,14.10
2019-03-28T06:30:19.508Z,13.97
2019-03-28T06:32:50.606Z,16.73
2019-03-28T06:35:22.041Z,11.53
2019-03-28T06:37:53.989Z,17.37
2019-03-28T06:40:25.061Z,15.03
2019-03-28T06:42:56.901Z,16.00
2019-03-28T06:45:28.868Z,10.33
2019-03-28T06:47:59.992Z,11.37
2019-03-28T06:50:31.365Z,10.30
2019-03-28T06:53:03.547Z,12.53
2019-03-28T06:55:36.893Z,10.97
2019-03-28T06:58:08.500Z,14.70
2019-03-28T07:00:40.680Z,13.57
2019-03-28T07:03:12.903Z,11.57
2019-03-28T07:05:45.017Z,18.27
2019-03-28T07:08:15.906Z,15.07
2019-03-28T07:10:47.313Z,10.70
2019-03-28T07:13:18.884Z,32.47
2019-03-28T07:15:49.950Z,12.90
2019-03-28T07:18:21.124Z,39.33
2019-03-28T07:20:52.450Z,16.63
2019-03-28T07:23:24.891Z,20.97
2019-03-28T07:25:56.141Z,29.37
2019-03-28T07:28:28.566Z,35.73
2019-03-28T07:30:59.777Z,16.20
2019-03-28T07:33:31.290Z,25.63
2019-03-28T07:36:03.303Z,24.77
2019-03-28T07:38:33.867Z,36.30
2019-03-28T07:41:04.780Z,26.07
2019-03-28T07:43:36.127Z,17.77
2019-03-28T07:46:07.742Z,15.77
2019-03-28T07:48:39.208Z,14.50
2019-03-28T07:51:10.833Z,23.80
2019-03-28T07:53:41.775Z,20.23
2019-03-28T07:56:12.603Z,17.87
2019-03-28T07:58:44.275Z,14.83
2019-03-28T08:01:17.932Z,14.00
2019-03-28T08:03:47.967Z,23.83
2019-03-28T08:06:18.659Z,15.40
2019-03-28T08:08:49.231Z,19.13
2019-03-28T08:11:20.683Z,23.80
2019-03-28T08:13:51.951Z,16.40
2019-03-28T08:16:23.493Z,29.13
2019-03-28T08:18:54.717Z,20.30
2019-03-28T08:21:26.205Z,21.03
2019-03-28T08:23:57.393Z,16.27
2019-03-28T08:26:30.281Z,24.03
2019-03-28T08:29:01.614Z,21.87
2019-03-28T08:31:33.469Z,25.40
2019-03-28T08:34:05.236Z,15.33
2019-03-28T08:36:36.309Z,19.07
2019-03-28T08:39:08.107Z,20.00
2019-03-28T08:41:39.496Z,18.03
2019-03-28T08:44:10.747Z,28.43
2019-03-28T08:46:41.639Z,14.17
2019-03-28T08:49:13.555Z,23.83
2019-03-28T08:51:44.289Z,21.67
2019-03-28T08:54:15.620Z,28.07
2019-03-28T08:56:46.857Z,23.10
2019-03-28T08:59:18.353Z,25.40
2019-03-28T09:01:49.293Z,28.53
2019-03-28T09:04:20.845Z,21.80
2019-03-28T09:06:53.223Z,24.37
2019-03-28T09:09:25.393Z,20.23
2019-03-28T09:11:56.353Z,21.73
2019-03-28T09:14:27.291Z,25.87
2019-03-28T09:16:58.681Z,23.80
2019-03-28T09:19:30.191Z,19.50
2019-03-28T09:22:01.096Z,20.63
2019-03-28T09:24:32.114Z,24.37
2019-03-28T09:27:03.316Z,32.03
2019-03-28T09:29:34.707Z,33.10
2019-03-28T09:32:06.185Z,30.33
2019-03-28T09:34:37.435Z,23.57
2019-03-28T09:37:08.958Z,20.40
2019-03-28T09:39:40.608Z,18.47
2019-03-28T09:42:15.446Z,21.23
2019-03-28T09:44:49.060Z,21.70
2019-03-28T09:47:20.603Z,20.17
2019-03-28T09:49:52.442Z,20.68
2019-03-28T09:52:23.717Z,16.50
2019-03-28T09:54:54.862Z,17.27
2019-03-28T09:57:26.009Z,19.70
2019-03-28T09:59:57.014Z,12.13
2019-03-28T10:02:27.764Z,9.93
2019-03-28T10:04:59.330Z,15.17
2019-03-28T10:07:30.986Z,16.05
2019-03-28T10:10:03.070Z,10.43
2019-03-28T10:12:34.546Z,15.03
2019-03-28T10:15:05.604Z,14.03
2019-03-28T10:17:36.625Z,13.63
2019-03-28T10:20:08.976Z,6.67
2019-03-28T10:22:41.164Z,7.20
2019-03-28T10:25:14.534Z,6.90
2019-03-28T10:27:46.336Z,8.23
2019-03-28T10:30:19.744Z,8.07
2019-03-28T10:32:51.110Z,11.67
2019-03-28T10:35:29.326Z,6.17
2019-03-28T10:38:00.398Z,7.60
2019-03-28T10:40:31.456Z,8.70
2019-03-28T10:43:02.821Z,11.33
2019-03-28T10:45:34.385Z,8.07
2019-03-28T10:48:05.265Z,7.93
2019-03-28T10:50:41.568Z,11.75
2019-03-28T10:53:09.676Z,8.60
2019-03-28T10:55:41.145Z,6.67
2019-03-28T10:58:18.628Z,5.50
2019-03-28T11:00:46.423Z,6.80
2019-03-28T11:03:17.252Z,7.10
2019-03-28T11:05:48.512Z,6.80
2019-03-28T11:08:19.872Z,10.33
2019-03-28T11:10:50.548Z,5.90
2019-03-28T11:13:21.659Z,8.60
2019-03-28T11:15:52.813Z,6.10
2019-03-28T11:18:24.461Z,7.17
2019-03-28T11:20:55.400Z,5.77
2019-03-28T11:23:26.180Z,4.43
2019-03-28T11:25:57.477Z,6.50
2019-03-28T11:28:28.588Z,6.47
2019-03-28T11:30:59.790Z,5.23
2019-03-28T11:33:31.089Z,5.23
2019-03-28T11:36:02.189Z,7.37
2019-03-28T11:38:34.504Z,5.10
2019-03-28T11:41:06.223Z,6.53
2019-03-28T11:43:37.327Z,7.70
2019-03-28T11:46:08.129Z,9.63
2019-03-28T11:48:39.274Z,4.87
2019-03-28T11:51:12.263Z,6.47
2019-03-28T11:53:43.057Z,7.17
2019-03-28T11:56:13.884Z,6.23
2019-03-28T11:58:45.004Z,5.70
2019-03-28T12:01:17.037Z,3.70
2019-03-28T12:03:47.998Z,6.40
2019-03-28T12:06:18.889Z,7.37
2019-03-28T12:08:50.280Z,7.77
2019-03-28T12:11:21.801Z,5.63
2019-03-28T12:13:53.183Z,6.40
2019-03-28T12:16:24.109Z,8.03
2019-03-28T12:18:55.703Z,7.83
2019-03-28T12:21:27.219Z,9.30
2019-03-28T12:23:58.369Z,7.30
2019-03-28T12:26:29.061Z,6.07
2019-03-28T12:29:00.704Z,5.70
2019-03-28T12:31:33.413Z,7.53
2019-03-28T12:34:04.638Z,7.40
2019-03-28T12:36:35.663Z,7.93
2019-03-28T12:39:07.954Z,5.07
2019-03-28T12:41:38.541Z,7.57
2019-03-28T12:44:10.089Z,8.50
2019-03-28T12:46:41.608Z,8.90
2019-03-28T12:49:13.167Z,5.20
2019-03-28T12:51:44.237Z,7.53
2019-03-28T12:54:15.185Z,6.70
2019-03-28T12:56:46.597Z,7.00
2019-03-28T12:59:17.959Z,6.77
2019-03-28T13:01:49.462Z,4.60
2019-03-28T13:04:21.694Z,7.13
2019-03-28T13:06:52.674Z,6.37
2019-03-28T13:09:24.361Z,12.33
2019-03-28T13:11:55.519Z,12.33
2019-03-28T13:14:26.397Z,7.17
2019-03-28T13:16:58.324Z,7.40
2019-03-28T13:19:29.893Z,5.67
2019-03-28T13:22:02.416Z,6.40
2019-03-28T13:24:33.260Z,6.40
2019-03-28T13:27:03.822Z,9.13
2019-03-28T13:29:34.715Z,5.57
2019-03-28T13:32:05.614Z,8.13
2019-03-28T13:34:38.125Z,6.87
2019-03-28T13:37:09.366Z,7.17
2019-03-28T13:39:40.795Z,4.87
2019-03-28T13:42:12.640Z,4.83
2019-03-28T13:44:43.360Z,6.37
2019-03-28T13:47:15.305Z,6.50
2019-03-28T13:49:46.449Z,6.87
2019-03-28T13:52:17.406Z,4.50
2019-03-28T13:54:49.459Z,4.67
2019-03-28T13:57:21.666Z,5.33
2019-03-28T13:59:53.428Z,5.00
2019-03-28T14:02:25.060Z,5.67
2019-03-28T14:04:55.831Z,3.00
2019-03-28T14:07:27.382Z,4.13
2019-03-28T14:09:58.134Z,5.10
2019-03-28T14:12:29.242Z,5.00
2019-03-28T14:15:00.798Z,4.23
2019-03-28T14:17:34.962Z,5.40
2019-03-28T14:20:06.270Z,3.97
2019-03-28T14:22:37.162Z,6.53
2019-03-28T14:25:08.892Z,4.23
2019-03-28T14:27:41.248Z,2.87
2019-03-28T14:30:13.414Z,6.60
2019-03-28T14:32:53.015Z,3.17
2019-03-28T14:35:18.385Z,3.33
2019-03-28T14:37:49.466Z,3.90
2019-03-28T14:40:20.741Z,5.40
2019-03-28T14:42:51.836Z,7.77
2019-03-28T14:45:23.554Z,3.03
2019-03-28T14:47:55.088Z,4.33
2019-03-28T14:50:37.046Z,5.60
2019-03-28T14:53:09.730Z,3.97
2019-03-28T14:55:40.820Z,3.13
2019-03-28T14:58:12.172Z,2.47
2019-03-28T15:00:54.255Z,7.33
2019-03-28T15:03:27.338Z,3.40
2019-03-28T15:05:58.852Z,2.77
2019-03-28T15:08:30.284Z,4.17
2019-03-28T15:11:01.873Z,3.97
2019-03-28T15:13:33.250Z,2.60
2019-03-28T15:16:05.018Z,2.33
2019-03-28T15:18:36.779Z,2.50
2019-03-28T15:21:07.615Z,2.27
2019-03-28T15:23:38.832Z,2.07
2019-03-28T15:26:10.354Z,5.27
2019-03-28T15:28:41.985Z,3.00
2019-03-28T15:31:13.714Z,2.63
2019-03-28T15:33:45.709Z,2.37
2019-03-28T15:36:17.476Z,2.10
2019-03-28T15:38:48.818Z,2.40
2019-03-28T15:41:20.310Z,2.60
2019-03-28T15:43:51.532Z,3.63
2019-03-28T15:46:23.090Z,3.93
2019-03-28T15:48:54.845Z,2.20
2019-03-28T15:51:25.595Z,3.60
2019-03-28T15:53:56.759Z,2.30
2019-03-28T15:56:28.101Z,2.73
2019-03-28T15:58:59.793Z,1.90
2019-03-28T16:01:31.008Z,2.90
2019-03-28T16:04:02.268Z,4.10
2019-03-28T16:06:33.921Z,2.17
2019-03-28T16:09:06.629Z,3.07
2019-03-28T16:11:38.052Z,2.17
2019-03-28T16:14:09.207Z,1.90
2019-03-28T16:16:40.361Z,2.80
2019-03-28T16:19:11.911Z,3.30
2019-03-28T16:21:43.184Z,2.50
2019-03-28T16:24:14.147Z,2.50
2019-03-28T16:26:45.485Z,4.53
2019-03-28T16:29:17.109Z,1.70
2019-03-28T16:31:48.271Z,2.47
2019-03-28T16:34:19.819Z,2.63
2019-03-28T16:36:51.513Z,4.53
2019-03-28T16:39:23.019Z,2.87
2019-03-28T16:41:54.267Z,3.43
2019-03-28T16:44:25.192Z,4.77
2019-03-28T16:46:56.103Z,3.17
2019-03-28T16:49:27.923Z,3.90
2019-03-28T16:51:59.909Z,3.70
2019-03-28T16:54:31.875Z,2.43
2019-03-28T16:57:02.804Z,2.50
2019-03-28T16:59:34.175Z,4.50
2019-03-28T17:02:05.152Z,2.33
2019-03-28T17:04:36.263Z,2.30
2019-03-28T17:07:08.545Z,3.60
2019-03-28T17:09:40.911Z,2.63
2019-03-28T17:12:12.508Z,3.63
2019-03-28T17:14:43.940Z,2.17
2019-03-28T17:17:15.257Z,6.60
2019-03-28T17:19:48.435Z,2.80
2019-03-28T17:22:19.764Z,5.30
2019-03-28T17:24:51.599Z,3.40
2019-03-28T17:27:22.539Z,2.53
2019-03-28T17:29:53.735Z,4.23
2019-03-28T17:32:25.449Z,3.63
2019-03-28T17:34:57.010Z,3.20
2019-03-28T17:37:28.562Z,4.63
2019-03-28T17:39:59.880Z,3.50
2019-03-28T17:42:31.473Z,2.23
2019-03-28T17:45:02.225Z,6.00
2019-03-28T17:47:33.976Z,3.22
2019-03-28T17:50:06.148Z,3.70
2019-03-28T17:52:37.910Z,2.77
2019-03-28T17:55:09.837Z,4.83
2019-03-28T17:57:41.439Z,4.40
2019-03-28T18:00:14.229Z,3.03
2019-03-28T18:02:45.661Z,3.50
2019-03-28T18:05:16.928Z,3.57
2019-03-28T18:07:48.487Z,6.70
2019-03-28T18:10:19.845Z,3.67
2019-03-28T18:12:51.323Z,4.07
2019-03-28T18:15:22.876Z,2.80
2019-03-28T18:17:54.308Z,8.60
2019-03-28T18:20:26.076Z,4.00
2019-03-28T18:22:58.013Z,3.43
2019-03-28T18:25:30.468Z,4.10
2019-03-28T18:28:02.586Z,3.77
2019-03-28T18:30:37.257Z,5.90
2019-03-28T18:33:07.746Z,6.30
2019-03-28T18:35:39.320Z,3.70
2019-03-28T18:38:10.920Z,3.53
2019-03-28T18:40:43.745Z,4.50
2019-03-28T18:43:14.795Z,3.87
2019-03-28T18:45:46.034Z,7.33
2019-03-28T18:48:29.165Z,6.03
2019-03-28T18:50:49.766Z,6.17
2019-03-28T18:53:21.236Z,5.53
2019-03-28T18:55:53.194Z,4.33
2019-03-28T18:58:24.612Z,7.27
2019-03-28T19:00:56.109Z,4.07
2019-03-28T19:03:27.262Z,4.40
2019-03-28T19:05:58.263Z,2.77
2019-03-28T19:08:30.170Z,3.43
2019-03-28T19:11:02.138Z,3.47
2019-03-28T19:13:32.874Z,3.93
2019-03-28T19:16:04.596Z,6.40
2019-03-28T19:18:35.318Z,3.93
2019-03-28T19:21:07.362Z,6.53
2019-03-28T19:23:38.776Z,4.40
2019-03-28T19:26:13.330Z,7.50
2019-03-28T19:28:45.063Z,12.73
2019-03-28T19:31:16.250Z,7.53
2019-03-28T19:33:47.212Z,6.47
2019-03-28T19:36:19.502Z,6.77
2019-03-28T19:38:52.949Z,7.30
2019-03-28T19:41:24.698Z,7.87
2019-03-28T19:43:57.334Z,6.90
2019-03-28T19:46:28.863Z,5.67
2019-03-28T19:49:00.840Z,11.93
2019-03-28T19:51:31.988Z,3.70
2019-03-28T19:54:02.903Z,10.23
2019-03-28T19:56:34.274Z,8.77
2019-03-28T19:59:06.234Z,5.10
2019-03-28T20:01:37.322Z,9.03
2019-03-28T20:04:08.862Z,9.33
2019-03-28T20:06:39.470Z,8.33
2019-03-28T20:09:16.444Z,7.40
2019-03-28T20:11:44.234Z,7.47
2019-03-28T20:14:15.898Z,4.13
2019-03-28T20:16:47.554Z,5.23
2019-03-28T20:19:19.118Z,6.80
2019-03-28T20:21:50.882Z,5.63
2019-03-28T20:24:22.228Z,8.50
2019-03-28T20:26:54.341Z,5.73
2019-03-28T20:29:27.188Z,6.27
2019-03-28T20:31:58.358Z,10.17
2019-03-28T20:34:29.988Z,4.30
2019-03-28T20:37:01.870Z,8.60
2019-03-28T20:39:33.556Z,6.43
2019-03-28T20:42:05.383Z,7.57
2019-03-28T20:44:36.463Z,5.87
2019-03-28T20:47:08.707Z,6.83
2019-03-28T20:49:40.010Z,6.20
2019-03-28T20:52:10.631Z,9.07
2019-03-28T20:54:41.897Z,5.53
2019-03-28T20:57:13.095Z,5.70
2019-03-28T20:59:44.517Z,4.87
2019-03-28T21:02:15.845Z,6.90
2019-03-28T21:04:47.583Z,7.20
2019-03-28T21:07:22.077Z,6.67
2019-03-28T21:09:53.377Z,5.40
2019-03-28T21:12:24.464Z,6.80
2019-03-28T21:14:55.645Z,5.63
2019-03-28T21:17:27.199Z,9.20
2019-03-28T21:19:58.958Z,7.33
2019-03-28T21:22:30.559Z,7.17
2019-03-28T21:25:02.079Z,4.70
2019-03-28T21:27:34.523Z,5.23
2019-03-28T21:30:05.599Z,5.60
2019-03-28T21:32:36.687Z,6.00
2019-03-28T21:35:08.916Z,5.07
2019-03-28T21:37:40.077Z,7.43
2019-03-28T21:40:11.752Z,4.90
2019-03-28T21:42:42.991Z,10.33
2019-03-28T21:45:15.079Z,4.50
2019-03-28T21:47:46.222Z,4.07
2019-03-28T21:50:17.447Z,5.23
2019-03-28T21:52:48.314Z,4.83
2019-03-28T21:55:19.471Z,6.33
2019-03-28T21:57:51.093Z,9.13
2019-03-28T22:00:22.583Z,4.10
2019-03-28T22:02:54.022Z,5.50
2019-03-28T22:05:28.661Z,3.97
2019-03-28T22:07:58.757Z,4.37
2019-03-28T22:10:30.315Z,3.43
2019-03-28T22:13:02.065Z,6.07
2019-03-28T22:15:33.433Z,5.13
2019-03-28T22:18:04.785Z,4.63
2019-03-28T22:20:36.127Z,4.50
2019-03-28T22:23:08.108Z,3.83
2019-03-28T22:25:38.807Z,4.50
2019-03-28T22:28:10.611Z,4.87
2019-03-28T22:30:42.354Z,3.63
2019-03-28T22:33:15.780Z,3.50
2019-03-28T22:35:47.317Z,4.37
2019-03-28T22:38:20.851Z,3.40
2019-03-28T22:40:52.908Z,4.03
2019-03-28T22:43:24.014Z,3.50
2019-03-28T22:45:54.762Z,3.97
2019-03-28T22:48:26.146Z,4.87
2019-03-28T22:50:57.236Z,6.63
2019-03-28T22:53:28.431Z,3.50
2019-03-28T22:55:58.789Z,3.17
2019-03-28T22:58:30.308Z,4.00
2019-03-28T23:01:01.817Z,8.10
2019-03-28T23:03:33.894Z,6.20
2019-03-28T23:06:05.298Z,9.90
2019-03-28T23:08:37.108Z,3.53
2019-03-28T23:11:10.161Z,13.63
2019-03-28T23:13:42.123Z,5.87
2019-03-28T23:16:13.530Z,6.27
2019-03-28T23:18:45.086Z,2.80
2019-03-28T23:21:16.205Z,4.13
2019-03-28T23:23:46.958Z,6.63
2019-03-28T23:26:18.472Z,4.60
2019-03-28T23:28:49.700Z,2.87
2019-03-28T23:31:21.798Z,3.70
2019-03-28T23:33:53.103Z,4.23
2019-03-28T23:36:24.514Z,7.40
2019-03-28T23:38:55.608Z,3.33
2019-03-28T23:41:26.879Z,4.40
2019-03-28T23:43:58.354Z,5.50
2019-03-28T23:46:29.104Z,5.10
2019-03-28T23:49:00.662Z,6.07
2019-03-28T23:51:32.006Z,5.07
2019-03-28T23:54:03.564Z,3.30
2019-03-28T23:56:34.730Z,3.83
2019-03-28T23:59:05.727Z,6.03
